AirNav   Air Wisconsin pilot careers
 
 1463 users online  

2PA2 Hillview Airport
Auburn, Pennsylvania, USA


FAA INFORMATION EFFECTIVE 07 DECEMBER 2017

Location

FAA Identifier: 2PA2
Lat/Long: 40-35-54.9600N / 076-08-13.0200W
40-35.916000N / 076-08.217000W
40.5986000 / -76.1369500
(estimated)
Elevation: 780 ft. / 238 m (estimated)
From city: 2 miles W of AUBURN, PA
Time zone: UTC -5 (UTC -4 during Daylight Saving Time)
Zip code: 17922

Airport Operations

Airport use: Private use. Permission required prior to landing
Activation date: 08/2012
Control tower: no
ARTCC: NEW YORK CENTER
FSS: WILLIAMSPORT FLIGHT SERVICE STATION
Attendance: UNATNDD
Segmented circle: no

Airport Communications

WX AWOS-3 at ZER (13 nm NW): 127.57 (570-544-2778)
WX ASOS at RDG (15 nm SE): PHONE 610-372-9863

Nearby radio navigation aids

VOR radial/distance  VOR name  Freq  Var
ETXr282/20.7EAST TEXAS VOR/DME110.2009W
RAVr094/21.2RAVINE VORTAC114.6011W
HZLr190/(22.6)HAZLETON VOR109.4009W
LRPr023/29.6LANCASTER VOR/DME117.3009W
FJCr266/32.0ALLENTOWN VORTAC117.5010W
PTWr320/34.7POTTSTOWN VORTAC116.5009W
MIPr146/35.0MILTON VORTAC109.2009W
SEGr117/35.9SELINSGROVE VOR/DME110.4008W

 
NDB name  Hdg/Dist  Freq  Var  ID
BELLGROVE073/21.332810WBZJ -... --.. .---

Airport Services

Runway Information

Runway 8/26

Dimensions: 1200 x 100 ft. / 366 x 30 m
Surface: turf
RUNWAY 8  RUNWAY 26
Traffic pattern: leftleft

Airport Ownership and Management from official FAA records

Ownership: Privately-owned
Owner: HAROLD L. MILLER
12 HOCK ST
CRESSONA, PA 17929
Phone 570-385-0370
Manager: HAROLD L. MILLER
12 HOCK ST
CRESSONA, PA 17929
Phone 570-385-0370

Airport Operational Statistics

Aircraft based on the field: 1
Single engine airplanes: 1
    

Instrument Procedures

There are no published instrument procedures at 2PA2.

Some nearby airports with instrument procedures:

KZER - Schuylkill County/Joe Zerbey Airport (13 nm NW)
KRDG - Reading Regional Airport/Carl A Spaatz Field (15 nm SE)
9D4 - Deck Airport (17 nm SW)
74N - Bendigo Airport (19 nm W)
08N - Keller Brothers Airport (20 nm SW)
 
Loc | Ops | Rwys | IFR | FBO | Links
Com | Nav | Svcs | Stats | Notes


 
Aerial photo
No photo
 
Airport distance calculator
Flying to Hillview Airport? Find the distance to fly.

From to 2PA2

Sunrise and sunset
Times for 13-Dec-2017
 Local
(UTC-5)
 Zulu
(UTC)
Morning civil twilight06:5011:50
Sunrise07:2112:21
Sunset16:3721:37
Evening civil twilight17:0822:08

Current date and time
Zulu (UTC)  13-Dec-2017 20:50:04
Local (UTC-5)  13-Dec-2017 15:50:04
 
METAR
KRDG 
16nm SE 
131954Z 28012G21KT 10SM CLR M02/M14 A2968 RMK AO2 PK WND 27027/1920 SLP061 T10171139
KMUI 
22nm SW 
131956Z AUTO 25013G22KT 10SM FEW055 M03/M16 A2969 RMK AO2 SLP064 T10291159
KHZL 
24nm N 
132035Z AUTO 26006G16KT 10SM BKN042 M05/M15 A2960 RMK AO2
KXLL 
30nm E 
132035Z AUTO 27014G21KT 10SM SCT050 M02/M14 A2968 RMK AO2
KLNS 
30nm S 
131953Z 29017KT 10SM CLR M02/M15 A2970 RMK AO2 PK WND 28027/1910 SLP062 T10221150
KABE 
31nm E 
131951Z 27016G25KT 10SM BKN050 M01/M14 A2965 RMK AO2 PK WND 25028/1914 SLP047 T10111144
TAF
KRDG 
16nm SE 
131724Z 1318/1418 29018G28KT P6SM SCT050 FM132000 28015G23KT P6SM BKN050 FM132300 26007KT P6SM BKN050 OVC100 FM140300 VRB03KT 5SM -SN BKN015 OVC025 FM140500 VRB03KT 1SM -SN SCT008 OVC015 FM141200 32005KT 5SM -SN SCT015 OVC025 FM141400 32008KT P6SM SCT025 OVC050 FM141600 32014G22KT P6SM FEW050 SCT250
NOTAMs
Click for the latest NOTAMs
NOTAMs are issued by the DoD/FAA and will open in a separate window not controlled by AirNav.

 

 
 

Would you like to see your business listed on this page?

 If your business provides an interesting product or service to pilots, flight crews, aircraft, or users of the Hillview Airport, you should consider listing it here.  To start the listing process, click on the button below
 
Add a business
 

Other Pages about Hillview Airport

Update a link
 
Copyright © AirNav, LLC. All rights reserved. Privacy Policy  Contact